Baring, MO (63531)

2:57 PM CST on February 12, 2016 (GMT -0600)
Kirksville Regional | | Change Station
CLOSE
Current Station
Airport
Location: Kirksville,
Elevation: 965 ft
Nearby Weather Stations

Elev 965 ft 40.10 °N, 92.55 °W | Updated 2 minutes ago

Clear
Clear
27 °F
Feels Like 15 °F
N
15
Wind Variable Wind from NW
Gusts 21 mph

Today
High -- | Low -- °F
--% Chance of Precip.
Yesterday
High -- | Low -- °F
Precip. -- in
Pressure 30.46 in
Visibility 10.0 miles
Clouds Clear
Windchill 15 °F
Dew Point 10 °F
Humidity 49%
Rainfall 0.00 in
Snow Depth Not available.
7:06 AM 5:40 PM
Waxing Crescent, 23% visible
METAR KIRK 122055Z AUTO 32013G18KT 10SM CLR M03/M12 A3041 RMK AO2 SNB03E09 SLP314 P0000 60000 T10281122 53007
Pressure 30.46 in
Visibility 10.0 miles
Clouds Clear
Windchill 15 °F
Dew Point 10 °F
Humidity 49%
Rainfall 0.00 in
Snow Depth Not available.
7:06 AM 5:40 PM
Waxing Crescent, 23% visible
METAR KIRK 122055Z AUTO 32013G18KT 10SM CLR M03/M12 A3041 RMK AO2 SNB03E09 SLP314 P0000 60000 T10281122 53007

10-Day Weather Forecast

Almanac

Astronomy

Feb. 12, 2016 Rise Set
Actual Time
Civil Twilight
Nautical Twilight
Astronomical Twilight
Moon
Length of Visible Light
Length of Day
Tomorrow will be .
, % of the Moon is Illuminated

Today's Extremes

State Highs State Lows

Community

WunderPhotos

Upload Photos

1,892,389 photos uploaded!

WunderBlog® & News

Nearby

Air Quality

  Air Quality AQ Index Pollutant
Not available.

Snow Depth

Station Depth Elevation

Earthquake Activity

City Distance Mag. Time & Date
Minimum magnitude displayed is 2.5.

Coastal Water Temperatures

Place Temperature

Stations

Nearby Weather Stations

Station Location Temp. Windchill Dew Point Humidity Wind Precip. Elev Updated Type
                   

Watches & Warnings

There are currently no watches in effect.